createdAt,value
2023-05-16T00:00:41.149Z,3.90
2023-05-16T00:03:07.800Z,0.73
2023-05-16T00:05:34.427Z,0.95
2023-05-16T00:08:02.234Z,2.97
2023-05-16T00:10:28.934Z,1.75
2023-05-16T00:12:55.620Z,1.10
2023-05-16T00:15:22.240Z,2.92
2023-05-16T00:17:48.959Z,2.35
2023-05-16T00:20:16.758Z,1.25
2023-05-16T00:22:43.507Z,1.35
2023-05-16T00:25:11.486Z,0.98
2023-05-16T00:27:37.961Z,2.15
2023-05-16T00:30:05.218Z,3.60
2023-05-16T00:32:31.788Z,0.90
2023-05-16T00:34:58.342Z,1.15
2023-05-16T00:37:24.841Z,1.98
2023-05-16T00:39:51.332Z,2.47
2023-05-16T00:42:20.775Z,1.50
2023-05-16T00:44:47.535Z,2.50
2023-05-16T00:47:14.113Z,0.98
2023-05-16T00:49:40.642Z,1.23
2023-05-16T00:52:07.242Z,1.42
2023-05-16T00:54:34.211Z,1.52
2023-05-16T00:57:00.721Z,1.92
2023-05-16T00:59:28.651Z,2.03
2023-05-16T01:01:55.246Z,1.88
2023-05-16T01:04:22.289Z,1.73
2023-05-16T01:06:48.789Z,2.45
2023-05-16T01:09:15.419Z,2.58
2023-05-16T01:11:50.546Z,1.83
2023-05-16T01:14:25.172Z,1.25
2023-05-16T01:16:59.386Z,2.67
2023-05-16T01:19:38.995Z,3.85
2023-05-16T01:22:12.352Z,2.15
2023-05-16T01:24:44.260Z,1.40
2023-05-16T01:27:14.434Z,2.22
2023-05-16T01:29:40.882Z,3.17
2023-05-16T01:32:07.686Z,1.73
2023-05-16T01:34:34.271Z,1.80
2023-05-16T01:37:09.332Z,2.00
2023-05-16T01:39:42.035Z,1.38
2023-05-16T01:42:12.674Z,1.67
2023-05-16T01:44:45.413Z,1.77
2023-05-16T01:47:13.951Z,0.85
2023-05-16T01:49:46.350Z,1.60
2023-05-16T01:52:19.366Z,1.13
2023-05-16T01:54:51.162Z,2.67
2023-05-16T01:57:17.970Z,2.35
2023-05-16T01:59:46.816Z,1.88
2023-05-16T02:02:13.252Z,2.80
2023-05-16T02:04:39.801Z,1.73
2023-05-16T02:07:06.324Z,1.35
2023-05-16T02:09:33.001Z,2.88
2023-05-16T02:11:59.493Z,2.08
2023-05-16T02:14:26.042Z,1.77
2023-05-16T02:16:53.807Z,0.80
2023-05-16T02:19:20.441Z,1.48
2023-05-16T02:21:47.141Z,1.48
2023-05-16T02:24:13.595Z,2.05
2023-05-16T02:26:40.035Z,2.05
2023-05-16T02:29:06.490Z,1.60
2023-05-16T02:31:33.817Z,1.75
2023-05-16T02:34:02.399Z,1.70
2023-05-16T02:36:29.207Z,1.67
2023-05-16T02:38:55.703Z,0.90
2023-05-16T02:41:22.312Z,1.70
2023-05-16T02:43:48.895Z,1.83
2023-05-16T02:46:26.301Z,2.20
2023-05-16T02:48:53.179Z,1.25
2023-05-16T02:51:22.907Z,2.13
2023-05-16T02:53:49.876Z,1.60
2023-05-16T02:56:16.572Z,1.63
2023-05-16T02:58:43.628Z,1.42
2023-05-16T03:01:10.280Z,1.70
2023-05-16T03:03:37.452Z,2.25
2023-05-16T03:06:04.248Z,1.70
2023-05-16T03:08:32.267Z,1.83
2023-05-16T03:10:58.708Z,1.67
2023-05-16T03:13:25.308Z,1.20
2023-05-16T03:15:51.876Z,1.75
2023-05-16T03:18:18.513Z,1.80
2023-05-16T03:20:44.974Z,1.45
2023-05-16T03:23:11.474Z,1.15
2023-05-16T03:25:39.430Z,2.03
2023-05-16T03:28:06.875Z,1.10
2023-05-16T03:30:33.383Z,2.42
2023-05-16T03:32:59.936Z,1.58
2023-05-16T03:35:26.832Z,2.47
2023-05-16T03:37:53.524Z,1.35
2023-05-16T03:40:20.735Z,1.45
2023-05-16T03:42:48.507Z,1.45
2023-05-16T03:45:15.913Z,1.58
2023-05-16T03:47:42.630Z,1.88
2023-05-16T03:50:09.641Z,1.48
2023-05-16T03:52:36.511Z,1.67
2023-05-16T03:55:03.314Z,1.00
2023-05-16T03:57:31.639Z,2.00
2023-05-16T03:59:59.469Z,1.83
2023-05-16T04:02:26.108Z,1.67
2023-05-16T04:04:52.597Z,1.70
2023-05-16T04:07:19.390Z,1.08
2023-05-16T04:09:46.772Z,1.67
2023-05-16T04:12:13.336Z,2.00
2023-05-16T04:14:39.799Z,2.22
2023-05-16T04:17:07.645Z,1.80
2023-05-16T04:19:34.176Z,1.63
2023-05-16T04:22:00.654Z,1.58
2023-05-16T04:24:27.116Z,1.70
2023-05-16T04:26:53.607Z,3.13
2023-05-16T04:29:20.225Z,1.75
2023-05-16T04:31:46.806Z,1.15
2023-05-16T04:34:14.671Z,1.38
2023-05-16T04:36:41.180Z,1.17
2023-05-16T04:39:07.722Z,1.73
2023-05-16T04:41:34.176Z,2.38
2023-05-16T04:44:02.219Z,1.52
2023-05-16T04:46:28.708Z,2.10
2023-05-16T04:48:55.330Z,1.60
2023-05-16T04:51:23.211Z,1.25
2023-05-16T04:53:49.678Z,1.17
2023-05-16T04:56:16.152Z,1.50
2023-05-16T04:58:42.950Z,1.20
2023-05-16T05:01:09.705Z,0.98
2023-05-16T05:03:36.175Z,1.08
2023-05-16T05:06:02.844Z,1.60
2023-05-16T05:08:30.679Z,3.60
2023-05-16T05:10:57.144Z,15.82
2023-05-16T05:13:23.605Z,22.50
2023-05-16T05:15:50.128Z,27.70
2023-05-16T05:18:16.794Z,14.55
2023-05-16T05:20:43.676Z,22.67
2023-05-16T05:23:10.198Z,21.60
2023-05-16T05:25:39.276Z,16.02
2023-05-16T05:28:05.768Z,13.75
2023-05-16T05:30:32.353Z,9.85
2023-05-16T05:32:58.974Z,10.88
2023-05-16T05:35:25.767Z,8.82
2023-05-16T05:37:52.548Z,10.55
2023-05-16T05:40:19.051Z,8.13
2023-05-16T05:42:47.154Z,8.73
2023-05-16T05:45:15.150Z,10.88
2023-05-16T05:47:42.227Z,4.50
2023-05-16T05:50:09.749Z,8.52
2023-05-16T05:52:36.280Z,6.22
2023-05-16T05:55:02.878Z,7.00
2023-05-16T05:57:29.346Z,5.63
2023-05-16T05:59:57.136Z,5.60
2023-05-16T06:02:23.619Z,5.50
2023-05-16T06:04:50.463Z,5.68
2023-05-16T06:07:17.010Z,11.02
2023-05-16T06:09:43.540Z,4.68
2023-05-16T06:12:10.173Z,4.13
2023-05-16T06:14:36.653Z,5.25
2023-05-16T06:17:04.578Z,2.33
2023-05-16T06:19:31.243Z,9.98
2023-05-16T06:21:57.740Z,5.28
2023-05-16T06:24:24.219Z,3.88
2023-05-16T06:26:50.712Z,4.95
2023-05-16T06:29:17.182Z,4.20
2023-05-16T06:31:45.547Z,7.45
2023-05-16T06:34:13.421Z,8.10
2023-05-16T06:36:40.013Z,6.47
2023-05-16T06:39:06.500Z,5.05
2023-05-16T06:41:33.034Z,3.58
2023-05-16T06:43:59.506Z,5.28
2023-05-16T06:46:26.053Z,8.52
2023-05-16T06:48:52.575Z,8.15
2023-05-16T06:51:20.398Z,5.28
2023-05-16T06:53:46.925Z,8.02
2023-05-16T06:56:13.429Z,9.93
2023-05-16T06:58:39.969Z,6.22
2023-05-16T07:01:06.527Z,13.90
2023-05-16T07:03:33.198Z,4.05
2023-05-16T07:05:59.786Z,7.25
2023-05-16T07:08:27.774Z,9.50
2023-05-16T07:10:54.243Z,4.38
2023-05-16T07:13:21.903Z,8.75
2023-05-16T07:15:48.357Z,10.88
2023-05-16T07:18:14.944Z,2.85
2023-05-16T07:20:41.662Z,5.45
2023-05-16T07:23:08.254Z,7.70
2023-05-16T07:25:36.070Z,5.47
2023-05-16T07:28:02.561Z,9.77
2023-05-16T07:30:29.174Z,3.67
2023-05-16T07:32:55.688Z,7.20
2023-05-16T07:35:22.162Z,4.38
2023-05-16T07:37:48.689Z,5.22
2023-05-16T07:40:15.299Z,3.70
2023-05-16T07:42:43.045Z,8.82
2023-05-16T07:45:10.175Z,3.67
2023-05-16T07:47:36.645Z,3.03
2023-05-16T07:50:03.417Z,8.55
2023-05-16T07:52:29.936Z,6.75
2023-05-16T07:54:56.484Z,3.85
2023-05-16T07:57:24.891Z,4.32
2023-05-16T07:59:53.448Z,5.07
2023-05-16T08:02:20.052Z,3.65
2023-05-16T08:04:47.026Z,3.85
2023-05-16T08:07:13.620Z,3.85
2023-05-16T08:09:40.192Z,3.40
2023-05-16T08:12:07.434Z,4.60
2023-05-16T08:14:34.000Z,4.65
2023-05-16T08:17:01.805Z,4.88
2023-05-16T08:19:28.795Z,4.35
2023-05-16T08:21:55.410Z,6.22
2023-05-16T08:24:21.853Z,5.00
2023-05-16T08:26:48.407Z,6.72
2023-05-16T08:29:14.916Z,8.95
2023-05-16T08:31:41.499Z,2.50
2023-05-16T08:34:09.427Z,9.85
2023-05-16T08:36:36.161Z,8.60
2023-05-16T08:39:02.620Z,7.43
2023-05-16T08:41:30.117Z,3.97
2023-05-16T08:43:56.973Z,6.95
2023-05-16T08:46:24.030Z,4.38
2023-05-16T08:48:53.106Z,6.63
2023-05-16T08:51:21.557Z,5.70
2023-05-16T08:53:54.134Z,7.53
2023-05-16T08:56:21.269Z,4.70
2023-05-16T08:58:48.887Z,5.15
2023-05-16T09:01:16.421Z,3.47
2023-05-16T09:03:43.965Z,4.43
2023-05-16T09:06:10.624Z,4.93
2023-05-16T09:08:38.405Z,4.28
2023-05-16T09:11:04.904Z,4.80
2023-05-16T09:13:31.506Z,5.15
2023-05-16T09:16:08.557Z,5.15
2023-05-16T09:18:35.163Z,3.90
2023-05-16T09:21:01.778Z,4.13
2023-05-16T09:23:28.376Z,8.63
2023-05-16T09:25:58.195Z,5.50
2023-05-16T09:28:25.419Z,9.55
2023-05-16T09:30:53.051Z,3.00
2023-05-16T09:33:22.194Z,7.78
2023-05-16T09:35:55.331Z,3.92
2023-05-16T09:38:21.794Z,8.02
2023-05-16T09:40:48.319Z,9.18
2023-05-16T09:43:17.306Z,4.10
2023-05-16T09:45:46.217Z,6.07
2023-05-16T09:48:13.068Z,6.20
2023-05-16T09:50:39.773Z,3.38
2023-05-16T09:53:06.331Z,5.80
2023-05-16T09:55:32.912Z,3.00
2023-05-16T09:57:59.454Z,5.85
2023-05-16T10:00:31.636Z,3.92
2023-05-16T10:03:01.403Z,3.70
2023-05-16T10:05:31.054Z,4.80
2023-05-16T10:07:58.237Z,2.78
2023-05-16T10:10:25.062Z,3.50
2023-05-16T10:12:52.882Z,5.55
2023-05-16T10:15:20.748Z,3.70
2023-05-16T10:17:51.365Z,3.80
2023-05-16T10:20:20.511Z,3.63
2023-05-16T10:22:47.279Z,4.05
2023-05-16T10:25:20.275Z,2.47
2023-05-16T10:27:47.433Z,3.43
2023-05-16T10:30:15.127Z,3.20
2023-05-16T10:32:42.865Z,6.20
2023-05-16T10:35:11.584Z,34.70
2023-05-16T10:37:39.848Z,47.28
2023-05-16T10:40:07.736Z,30.15
2023-05-16T10:42:34.681Z,17.77
2023-05-16T10:45:15.509Z,23.00
2023-05-16T10:47:50.592Z,18.15
2023-05-16T10:50:31.188Z,18.35
2023-05-16T10:53:13.164Z,11.77
2023-05-16T10:55:39.872Z,10.13
2023-05-16T10:58:06.342Z,17.40
2023-05-16T11:00:32.792Z,8.07
2023-05-16T11:03:05.493Z,14.70
2023-05-16T11:05:33.762Z,13.55
2023-05-16T11:08:03.344Z,8.15
2023-05-16T11:10:31.078Z,12.63
2023-05-16T11:13:02.944Z,11.63
2023-05-16T11:15:32.412Z,12.07
2023-05-16T11:18:07.995Z,7.20
2023-05-16T11:20:38.126Z,12.27
2023-05-16T11:23:18.890Z,5.88
2023-05-16T11:25:47.314Z,6.82
2023-05-16T11:28:14.018Z,5.15
2023-05-16T11:30:43.270Z,6.50
2023-05-16T11:33:09.818Z,7.70
2023-05-16T11:35:37.753Z,9.90
2023-05-16T11:38:04.561Z,8.43
2023-05-16T11:40:31.134Z,9.52
2023-05-16T11:43:00.846Z,7.28
2023-05-16T11:45:27.667Z,13.25
2023-05-16T11:47:54.581Z,8.18
2023-05-16T11:50:23.293Z,7.13
2023-05-16T11:52:52.852Z,8.50
2023-05-16T11:55:32.617Z,5.85
2023-05-16T11:58:07.572Z,14.13
2023-05-16T12:00:34.681Z,9.30
2023-05-16T12:03:02.563Z,4.75
2023-05-16T12:05:29.356Z,3.72
2023-05-16T12:07:57.335Z,5.57
2023-05-16T12:10:23.937Z,4.97
2023-05-16T12:12:51.948Z,3.83
2023-05-16T12:15:19.049Z,5.55
2023-05-16T12:17:46.663Z,6.40
2023-05-16T12:20:14.700Z,4.78
2023-05-16T12:22:41.888Z,4.75
2023-05-16T12:25:21.652Z,4.65
2023-05-16T12:27:48.143Z,3.03
2023-05-16T12:30:17.456Z,4.68
2023-05-16T12:32:44.266Z,5.03
2023-05-16T12:35:11.367Z,4.72
2023-05-16T12:37:37.918Z,4.40
2023-05-16T12:40:06.024Z,5.20
2023-05-16T12:42:34.358Z,7.55
2023-05-16T12:45:00.878Z,4.07
2023-05-16T12:47:35.567Z,5.95
2023-05-16T12:50:02.113Z,5.40
2023-05-16T12:52:29.133Z,6.72
2023-05-16T12:54:55.607Z,3.10
2023-05-16T12:57:22.231Z,2.92
2023-05-16T12:59:49.981Z,6.78
2023-05-16T13:02:16.411Z,3.65
2023-05-16T13:04:42.814Z,5.15
2023-05-16T13:07:09.271Z,3.97
2023-05-16T13:09:35.718Z,4.47
2023-05-16T13:12:02.261Z,3.17
2023-05-16T13:14:28.799Z,8.88
2023-05-16T13:16:56.560Z,3.67
2023-05-16T13:19:23.152Z,5.22
2023-05-16T13:21:49.713Z,3.65
2023-05-16T13:24:16.167Z,4.03
2023-05-16T13:26:42.598Z,4.22
2023-05-16T13:29:09.187Z,7.43
2023-05-16T13:31:35.717Z,2.90
2023-05-16T13:34:03.549Z,4.90
2023-05-16T13:36:38.395Z,7.95
2023-05-16T13:39:16.233Z,5.68
2023-05-16T13:41:42.713Z,11.10
2023-05-16T13:44:09.235Z,5.03
2023-05-16T13:46:36.050Z,3.38
2023-05-16T13:49:03.978Z,7.15
2023-05-16T13:51:30.458Z,7.05
2023-05-16T13:53:56.931Z,3.72
2023-05-16T13:56:23.384Z,8.98
2023-05-16T13:59:02.198Z,4.18
2023-05-16T14:01:32.947Z,6.18
2023-05-16T14:03:59.551Z,5.28
2023-05-16T14:06:27.588Z,4.38
2023-05-16T14:08:54.581Z,5.63
2023-05-16T14:11:21.033Z,5.10
2023-05-16T14:13:47.877Z,5.65
2023-05-16T14:16:14.479Z,5.05
2023-05-16T14:18:41.255Z,6.68
2023-05-16T14:21:07.897Z,7.50
2023-05-16T14:23:36.708Z,4.43
2023-05-16T14:26:04.027Z,5.82
2023-05-16T14:28:31.331Z,3.63
2023-05-16T14:30:57.778Z,4.07
2023-05-16T14:33:24.421Z,5.97
2023-05-16T14:35:50.869Z,3.80
2023-05-16T14:38:17.424Z,4.35
2023-05-16T14:40:45.238Z,4.95
2023-05-16T14:43:11.799Z,6.85
2023-05-16T14:45:38.480Z,6.20
2023-05-16T14:48:08.324Z,4.78
2023-05-16T14:50:35.136Z,6.55
2023-05-16T14:53:01.639Z,9.88
2023-05-16T14:55:28.466Z,3.88
2023-05-16T14:57:59.682Z,4.38
2023-05-16T15:00:27.369Z,7.75
2023-05-16T15:02:54.213Z,5.05
2023-05-16T15:05:20.952Z,6.93
2023-05-16T15:07:47.502Z,7.47
2023-05-16T15:10:14.069Z,4.32
2023-05-16T15:12:40.563Z,6.72
2023-05-16T15:15:09.647Z,4.13
2023-05-16T15:17:36.227Z,7.18
2023-05-16T15:20:03.085Z,4.55
2023-05-16T15:22:30.577Z,9.77
2023-05-16T15:24:57.137Z,6.88
2023-05-16T15:27:23.622Z,9.10
2023-05-16T15:29:50.046Z,5.43
2023-05-16T15:32:17.883Z,3.55
2023-05-16T15:34:44.429Z,5.95
2023-05-16T15:37:11.296Z,4.43
2023-05-16T15:39:37.823Z,3.30
2023-05-16T15:42:09.729Z,6.07
2023-05-16T15:44:38.034Z,7.68
2023-05-16T15:47:04.922Z,7.60
2023-05-16T15:49:32.741Z,12.75
2023-05-16T15:51:59.335Z,7.78
2023-05-16T15:54:25.853Z,8.15
2023-05-16T15:56:52.340Z,9.20
2023-05-16T15:59:18.986Z,12.85
2023-05-16T16:01:45.589Z,8.93
2023-05-16T16:04:12.123Z,4.88
2023-05-16T16:06:39.885Z,6.22
2023-05-16T16:09:06.534Z,4.63
2023-05-16T16:11:33.100Z,5.97
2023-05-16T16:13:59.568Z,5.43
2023-05-16T16:16:26.296Z,5.88
2023-05-16T16:18:53.336Z,3.65
2023-05-16T16:21:19.869Z,6.03
2023-05-16T16:23:47.727Z,5.15
2023-05-16T16:26:14.198Z,4.10
2023-05-16T16:28:40.683Z,3.50
2023-05-16T16:31:07.156Z,3.22
2023-05-16T16:33:33.668Z,4.15
2023-05-16T16:36:01.007Z,3.42
2023-05-16T16:38:27.503Z,2.97
2023-05-16T16:40:55.389Z,2.70
2023-05-16T16:43:22.082Z,3.53
2023-05-16T16:45:48.530Z,5.78
2023-05-16T16:48:15.008Z,5.25
2023-05-16T16:50:41.627Z,4.35
2023-05-16T16:53:08.105Z,3.38
2023-05-16T16:55:34.690Z,5.00
2023-05-16T16:58:02.671Z,2.97
2023-05-16T17:00:29.580Z,2.28
2023-05-16T17:02:56.223Z,3.00
2023-05-16T17:05:22.837Z,5.30
2023-05-16T17:07:49.267Z,5.15
2023-05-16T17:10:16.238Z,3.17
2023-05-16T17:12:42.853Z,2.63
2023-05-16T17:15:10.826Z,2.28
2023-05-16T17:17:37.283Z,2.00
2023-05-16T17:20:04.296Z,5.75
2023-05-16T17:22:31.118Z,3.58
2023-05-16T17:24:57.712Z,2.70
2023-05-16T17:27:24.217Z,2.60
2023-05-16T17:29:50.685Z,2.25
2023-05-16T17:32:18.481Z,3.42
2023-05-16T17:34:45.259Z,2.78
2023-05-16T17:37:11.712Z,3.92
2023-05-16T17:39:38.531Z,2.45
2023-05-16T17:42:05.084Z,3.03
2023-05-16T17:44:31.697Z,2.60
2023-05-16T17:46:58.145Z,3.03
2023-05-16T17:49:26.060Z,1.95
2023-05-16T17:51:54.302Z,3.30
2023-05-16T17:54:21.500Z,3.25
2023-05-16T17:56:49.935Z,5.10
2023-05-16T17:59:17.335Z,2.75
2023-05-16T18:01:43.856Z,3.25
2023-05-16T18:04:10.617Z,2.28
2023-05-16T18:06:38.663Z,5.78
2023-05-16T18:09:05.637Z,2.97
2023-05-16T18:11:33.916Z,3.00
2023-05-16T18:14:00.728Z,4.35
2023-05-16T18:16:27.452Z,2.95
2023-05-16T18:18:54.235Z,3.35
2023-05-16T18:21:20.885Z,4.43
2023-05-16T18:23:48.934Z,4.93
2023-05-16T18:26:15.517Z,3.53
2023-05-16T18:28:42.024Z,3.60
2023-05-16T18:31:08.650Z,3.63
2023-05-16T18:33:35.381Z,4.70
2023-05-16T18:36:02.005Z,3.20
2023-05-16T18:38:32.686Z,2.90
2023-05-16T18:41:01.367Z,3.60
2023-05-16T18:43:27.987Z,3.90
2023-05-16T18:45:54.476Z,2.63
2023-05-16T18:48:21.066Z,2.28
2023-05-16T18:50:47.599Z,4.63
2023-05-16T18:53:14.049Z,2.28
2023-05-16T18:55:40.590Z,4.15
2023-05-16T18:58:08.375Z,3.10
2023-05-16T19:00:34.979Z,6.05
2023-05-16T19:03:01.632Z,2.97
2023-05-16T19:05:28.566Z,4.30
2023-05-16T19:07:55.283Z,3.80
2023-05-16T19:10:21.806Z,4.70
2023-05-16T19:12:48.376Z,3.70
2023-05-16T19:15:16.198Z,1.90
2023-05-16T19:17:43.005Z,4.72
2023-05-16T19:20:10.135Z,3.40
2023-05-16T19:22:37.106Z,1.52
2023-05-16T19:25:03.919Z,2.85
2023-05-16T19:27:30.510Z,2.38
2023-05-16T19:29:57.045Z,4.32
2023-05-16T19:32:25.136Z,3.30
2023-05-16T19:34:51.931Z,3.40
2023-05-16T19:37:18.583Z,3.28
2023-05-16T19:39:45.080Z,2.80
2023-05-16T19:42:11.573Z,6.13
2023-05-16T19:44:38.084Z,5.07
2023-05-16T19:47:05.116Z,5.57
2023-05-16T19:49:32.993Z,4.07
2023-05-16T19:51:59.719Z,3.67
2023-05-16T19:54:26.164Z,3.58
2023-05-16T19:56:52.723Z,5.90
2023-05-16T19:59:19.214Z,3.75
2023-05-16T20:01:45.929Z,3.53
2023-05-16T20:04:12.993Z,3.17
2023-05-16T20:06:41.036Z,3.88
2023-05-16T20:09:07.827Z,2.50
2023-05-16T20:11:34.454Z,2.70
2023-05-16T20:14:01.009Z,3.55
2023-05-16T20:16:27.643Z,2.13
2023-05-16T20:18:54.381Z,1.65
2023-05-16T20:21:21.106Z,1.70
2023-05-16T20:23:49.152Z,3.35
2023-05-16T20:26:15.745Z,2.67
2023-05-16T20:28:42.491Z,3.20
2023-05-16T20:31:09.107Z,3.83
2023-05-16T20:33:35.803Z,2.60
2023-05-16T20:36:02.434Z,3.70
2023-05-16T20:38:29.159Z,2.97
2023-05-16T20:40:56.920Z,1.85
2023-05-16T20:43:25.212Z,2.60
2023-05-16T20:45:53.019Z,4.53
2023-05-16T20:48:19.603Z,3.53
2023-05-16T20:50:46.144Z,2.22
2023-05-16T20:53:12.623Z,4.45
2023-05-16T20:55:39.250Z,2.13
2023-05-16T20:58:07.048Z,2.47
2023-05-16T21:00:33.579Z,4.43
2023-05-16T21:03:00.111Z,3.85
2023-05-16T21:05:26.768Z,3.00
2023-05-16T21:10:29.014Z,3.75
2023-05-16T21:12:55.597Z,4.43
2023-05-16T21:15:23.796Z,5.50
2023-05-16T21:17:50.568Z,5.50
2023-05-16T21:20:17.369Z,2.60
2023-05-16T21:22:43.935Z,2.85
2023-05-16T21:25:10.601Z,2.13
2023-05-16T21:27:37.326Z,2.60
2023-05-16T21:30:04.361Z,4.38
2023-05-16T21:32:32.497Z,2.40
2023-05-16T21:34:59.266Z,3.13
2023-05-16T21:37:25.849Z,5.15
2023-05-16T21:39:52.407Z,3.05
2023-05-16T21:42:19.100Z,3.20
2023-05-16T21:44:45.741Z,1.88
2023-05-16T21:47:12.270Z,2.58
2023-05-16T21:49:40.050Z,2.10
2023-05-16T21:52:07.763Z,3.92
2023-05-16T21:54:34.472Z,3.22
2023-05-16T21:57:01.002Z,2.55
2023-05-16T21:59:27.578Z,3.95
2023-05-16T22:01:54.058Z,5.18
2023-05-16T22:04:20.675Z,2.33
2023-05-16T22:06:48.567Z,3.35
2023-05-16T22:09:15.030Z,2.08
2023-05-16T22:11:41.530Z,2.75
2023-05-16T22:14:08.071Z,2.70
2023-05-16T22:16:34.585Z,3.15
2023-05-16T22:19:01.185Z,2.30
2023-05-16T22:21:27.663Z,4.28
2023-05-16T22:23:55.384Z,1.20
2023-05-16T22:26:21.819Z,5.07
2023-05-16T22:28:48.338Z,2.60
2023-05-16T22:31:14.968Z,3.15
2023-05-16T22:33:41.497Z,6.10
2023-05-16T22:36:08.293Z,1.73
2023-05-16T22:38:34.755Z,2.53
2023-05-16T22:41:02.602Z,3.67
2023-05-16T22:43:29.043Z,1.77
2023-05-16T22:45:55.609Z,1.60
2023-05-16T22:48:22.066Z,1.67
2023-05-16T22:50:48.580Z,1.70
2023-05-16T22:53:15.053Z,3.47
2023-05-16T22:55:41.569Z,2.38
2023-05-16T22:58:09.327Z,3.42
2023-05-16T23:00:35.793Z,2.67
2023-05-16T23:03:02.450Z,2.72
2023-05-16T23:05:29.309Z,2.53
2023-05-16T23:07:55.970Z,2.28
2023-05-16T23:10:22.450Z,2.38
2023-05-16T23:12:48.907Z,3.30
2023-05-16T23:15:16.689Z,4.30
2023-05-16T23:17:43.401Z,3.05
2023-05-16T23:20:10.255Z,3.88
2023-05-16T23:22:36.746Z,2.63
2023-05-16T23:25:03.486Z,2.25
2023-05-16T23:27:29.997Z,2.75
2023-05-16T23:29:56.447Z,1.90
2023-05-16T23:32:24.435Z,1.90
2023-05-16T23:34:51.050Z,1.83
2023-05-16T23:37:17.490Z,2.72
2023-05-16T23:39:43.957Z,2.92
2023-05-16T23:42:10.482Z,2.60
2023-05-16T23:44:36.913Z,3.75
2023-05-16T23:47:03.500Z,2.75
2023-05-16T23:49:31.401Z,2.75
2023-05-16T23:51:58.430Z,1.65
2023-05-16T23:54:25.074Z,2.65
2023-05-16T23:56:51.692Z,1.33
2023-05-16T23:59:18.454Z,1.70
